createdAt,value
2022-11-27T00:00:09.910Z,99611.19
2022-11-27T00:05:14.330Z,99626.50
2022-11-27T00:10:16.344Z,99616.88
2022-11-27T00:15:18.883Z,99615.78
2022-11-27T00:20:20.748Z,99606.59
2022-11-27T00:25:22.639Z,99594.88
2022-11-27T00:30:24.472Z,99587.53
2022-11-27T00:35:26.393Z,99596.50
2022-11-27T00:40:28.195Z,99594.22
2022-11-27T00:45:30.016Z,99595.69
2022-11-27T00:50:32.721Z,99579.81
2022-11-27T00:55:34.526Z,99588.59
2022-11-27T01:00:36.350Z,99576.44
2022-11-27T01:05:38.293Z,99579.34
2022-11-27T01:10:40.143Z,99582.22
2022-11-27T01:15:41.967Z,99560.94
2022-11-27T01:20:43.800Z,99554.63
2022-11-27T01:25:45.649Z,99547.19
2022-11-27T01:30:47.840Z,99531.97
2022-11-27T01:36:04.982Z,99526.22
2022-11-27T01:41:09.363Z,99535.97
2022-11-27T01:46:32.501Z,99520.66
2022-11-27T01:51:37.293Z,99502.72
2022-11-27T01:56:41.972Z,99507.09
2022-11-27T02:01:44.014Z,99497.03
2022-11-27T02:06:47.289Z,99490.09
2022-11-27T02:12:14.802Z,99484.81
2022-11-27T02:17:28.410Z,99479.44
2022-11-27T02:22:57.380Z,99479.94
2022-11-27T02:28:38.992Z,99469.84
2022-11-27T02:33:45.845Z,99465.47
2022-11-27T02:38:54.099Z,99466.41
2022-11-27T02:43:57.402Z,99469.84
2022-11-27T02:49:03.938Z,99470.50
2022-11-27T02:54:10.099Z,99473.72
2022-11-27T02:59:14.848Z,99471.88
2022-11-27T03:04:22.409Z,99480.38
2022-11-27T03:09:39.057Z,99495.06
2022-11-27T03:14:42.305Z,99491.22
2022-11-27T03:19:56.327Z,99495.00
2022-11-27T03:24:59.127Z,99486.25
2022-11-27T03:30:02.810Z,99485.22
2022-11-27T03:35:08.302Z,99483.66
2022-11-27T03:40:10.931Z,99486.66
2022-11-27T03:45:22.254Z,99489.81
2022-11-27T03:50:39.416Z,99483.44
2022-11-27T03:56:10.046Z,99475.63
2022-11-27T04:01:17.225Z,99466.53
2022-11-27T04:06:19.118Z,99467.81
2022-11-27T04:11:20.893Z,99468.56
2022-11-27T04:16:23.098Z,99467.75
2022-11-27T04:21:25.147Z,99463.91
2022-11-27T04:26:27.008Z,99466.09
2022-11-27T04:31:28.830Z,99474.66
2022-11-27T04:36:34.703Z,99479.03
2022-11-27T04:41:39.737Z,99472.75
2022-11-27T04:46:41.555Z,99475.56
2022-11-27T04:51:43.601Z,99473.56
2022-11-27T04:56:45.408Z,99468.72
2022-11-27T05:01:47.379Z,99469.50
2022-11-27T05:06:50.096Z,99464.19
2022-11-27T05:11:51.926Z,99470.38
2022-11-27T05:16:57.195Z,99453.22
2022-11-27T05:21:59.517Z,99458.34
2022-11-27T05:27:01.313Z,99462.38
2022-11-27T05:32:03.251Z,99472.88
2022-11-27T05:37:05.090Z,99479.59
2022-11-27T05:42:06.901Z,99482.56
2022-11-27T05:47:08.785Z,99474.50
2022-11-27T05:52:10.643Z,99473.72
2022-11-27T05:57:12.451Z,99475.34
2022-11-27T06:02:20.740Z,99472.72
2022-11-27T06:07:24.608Z,99468.78
2022-11-27T06:12:26.734Z,99460.97
2022-11-27T06:17:28.578Z,99454.03
2022-11-27T06:22:31.419Z,99449.19
2022-11-27T06:27:36.851Z,99451.38
2022-11-27T06:32:38.745Z,99437.91
2022-11-27T06:37:40.559Z,99443.81
2022-11-27T06:42:42.338Z,99444.09
2022-11-27T06:47:44.162Z,99438.53
2022-11-27T06:52:45.958Z,99428.63
2022-11-27T06:57:51.377Z,99418.09
2022-11-27T07:02:55.066Z,99422.91
2022-11-27T07:07:58.320Z,99425.56
2022-11-27T07:13:00.159Z,99421.72
2022-11-27T07:18:02.488Z,99415.22
2022-11-27T07:23:04.293Z,99425.78
2022-11-27T07:28:06.094Z,99429.97
2022-11-27T07:33:07.964Z,99428.75
2022-11-27T07:38:09.767Z,99429.16
2022-11-27T07:43:11.569Z,99427.41
2022-11-27T07:48:13.365Z,99422.94
2022-11-27T07:53:15.193Z,99416.75
2022-11-27T07:58:17.294Z,99390.03
2022-11-27T08:03:19.087Z,99392.81
2022-11-27T08:08:20.983Z,99389.38
2022-11-27T08:13:22.796Z,99389.16
2022-11-27T08:18:24.955Z,99372.94
2022-11-27T08:23:26.884Z,99377.44
2022-11-27T08:28:28.786Z,99374.34
2022-11-27T08:33:31.403Z,99366.06
2022-11-27T08:38:33.269Z,99369.09
2022-11-27T08:43:35.565Z,99368.88
2022-11-27T08:48:37.572Z,99372.38
2022-11-27T08:53:40.127Z,99368.56
2022-11-27T08:58:42.205Z,99364.31
2022-11-27T09:03:44.066Z,99377.69
2022-11-27T09:08:45.968Z,99373.47
2022-11-27T09:13:48.219Z,99366.56
2022-11-27T09:18:52.539Z,99356.88
2022-11-27T09:23:55.730Z,99355.81
2022-11-27T09:28:58.990Z,99347.22
2022-11-27T09:34:00.868Z,99325.75
2022-11-27T09:39:03.760Z,99327.34
2022-11-27T09:44:29.931Z,99315.91
2022-11-27T09:49:58.591Z,99309.69
2022-11-27T09:55:13.587Z,99291.41
2022-11-27T10:00:18.509Z,99281.47
2022-11-27T10:05:26.657Z,99271.94
2022-11-27T10:11:05.872Z,99270.34
2022-11-27T10:16:13.843Z,99262.41
2022-11-27T10:21:24.664Z,99256.94
2022-11-27T10:26:36.629Z,99258.66
2022-11-27T10:31:50.415Z,99258.81
2022-11-27T10:36:56.292Z,99244.00
2022-11-27T10:42:11.253Z,99239.75
2022-11-27T10:47:15.865Z,99240.56
2022-11-27T10:52:19.989Z,99235.31
2022-11-27T10:57:32.371Z,99240.41
2022-11-27T11:02:38.635Z,99218.88
2022-11-27T11:07:40.645Z,99225.13
2022-11-27T11:12:42.510Z,99225.78
2022-11-27T11:17:44.359Z,99226.41
2022-11-27T11:22:47.995Z,99213.03
2022-11-27T11:27:51.552Z,99215.94
2022-11-27T11:33:03.145Z,99226.75
2022-11-27T11:38:14.791Z,99238.84
2022-11-27T11:43:32.482Z,99234.69
2022-11-27T11:48:35.973Z,99223.22
2022-11-27T11:53:44.472Z,99227.22
2022-11-27T11:58:46.220Z,99226.09
2022-11-27T12:04:00.223Z,99205.56
2022-11-27T12:09:19.236Z,99215.44
2022-11-27T12:14:27.139Z,99207.28
2022-11-27T12:19:50.753Z,99208.06
2022-11-27T12:25:22.273Z,99189.28
2022-11-27T12:30:30.086Z,99187.81
2022-11-27T12:35:52.138Z,99178.66
2022-11-27T12:41:10.406Z,99158.78
2022-11-27T12:46:37.679Z,99138.06
2022-11-27T12:51:56.853Z,99132.78
2022-11-27T12:57:07.452Z,99131.69
2022-11-27T13:02:09.250Z,99129.13
2022-11-27T13:07:19.986Z,99111.84
2022-11-27T13:12:31.559Z,99098.84
2022-11-27T13:17:43.137Z,99086.22
2022-11-27T13:22:46.865Z,99074.38
2022-11-27T13:27:51.907Z,99074.06
2022-11-27T13:32:56.464Z,99060.47
2022-11-27T13:38:08.887Z,99053.38
2022-11-27T13:43:29.079Z,99044.56
2022-11-27T13:48:37.692Z,99042.72
2022-11-27T13:53:42.119Z,99042.06
2022-11-27T13:58:43.994Z,99041.84
2022-11-27T14:03:46.022Z,99036.75
2022-11-27T14:09:07.346Z,99052.91
2022-11-27T14:14:17.722Z,99059.97
2022-11-27T14:19:44.374Z,99047.72
2022-11-27T14:24:56.010Z,99047.53
2022-11-27T14:29:57.820Z,99049.09
2022-11-27T14:34:59.621Z,99042.84
2022-11-27T14:40:13.724Z,99029.63
2022-11-27T14:45:19.061Z,99047.38
2022-11-27T14:50:22.072Z,99032.69
2022-11-27T14:55:24.443Z,99027.00
2022-11-27T15:00:27.376Z,99014.19
2022-11-27T15:05:29.955Z,99023.16
2022-11-27T15:10:40.599Z,99019.75
2022-11-27T15:15:45.034Z,99020.03
2022-11-27T15:20:47.482Z,99002.13
2022-11-27T15:26:03.856Z,99005.63
2022-11-27T15:31:25.555Z,98999.94
2022-11-27T15:36:33.741Z,98997.72
2022-11-27T15:41:40.818Z,99012.38
2022-11-27T15:46:45.575Z,98998.88
2022-11-27T15:51:47.442Z,98983.28
2022-11-27T15:56:49.648Z,98980.59
2022-11-27T16:01:51.589Z,98970.19
2022-11-27T16:06:53.665Z,98965.75
2022-11-27T16:11:55.646Z,98954.47
2022-11-27T16:16:57.529Z,98952.53
2022-11-27T16:21:59.358Z,98952.22
2022-11-27T16:27:01.190Z,98944.91
2022-11-27T16:32:03.430Z,98951.53
2022-11-27T16:37:05.325Z,98940.25
2022-11-27T16:42:07.510Z,98945.78
2022-11-27T16:47:10.543Z,98946.09
2022-11-27T16:52:12.646Z,98946.63
2022-11-27T16:57:14.527Z,98939.44
2022-11-27T17:02:16.987Z,98936.91
2022-11-27T17:07:18.849Z,98924.69
2022-11-27T17:12:20.824Z,98916.72
2022-11-27T17:17:22.672Z,98917.94
2022-11-27T17:22:26.809Z,98915.47
2022-11-27T17:27:28.692Z,98906.63
2022-11-27T17:32:31.124Z,98898.25
2022-11-27T17:37:33.025Z,98890.66
2022-11-27T17:42:34.872Z,98882.09
2022-11-27T17:47:36.677Z,98872.56
2022-11-27T17:52:40.033Z,98873.16
2022-11-27T17:57:42.035Z,98867.00
2022-11-27T18:02:43.969Z,98860.88
2022-11-27T18:07:45.961Z,98855.38
2022-11-27T18:12:47.866Z,98848.44
2022-11-27T18:17:49.747Z,98837.19
2022-11-27T18:22:51.637Z,98829.41
2022-11-27T18:27:53.617Z,98808.66
2022-11-27T18:32:55.438Z,98796.16
2022-11-27T18:37:57.253Z,98798.78
2022-11-27T18:42:59.074Z,98790.81
2022-11-27T18:48:00.945Z,98790.34
2022-11-27T18:53:03.326Z,98782.41
2022-11-27T18:58:05.196Z,98784.13
2022-11-27T19:03:07.253Z,98788.69
2022-11-27T19:08:10.364Z,98795.66
2022-11-27T19:13:12.250Z,98791.69
2022-11-27T19:18:14.510Z,98797.69
2022-11-27T19:23:16.502Z,98793.91
2022-11-27T19:28:18.515Z,98790.72
2022-11-27T19:33:20.412Z,98791.81
2022-11-27T19:38:22.236Z,98792.13
2022-11-27T19:43:24.758Z,98783.59
2022-11-27T19:48:27.481Z,98785.59
2022-11-27T19:53:29.502Z,98784.03
2022-11-27T19:58:32.428Z,98780.19
2022-11-27T20:03:34.361Z,98767.88
2022-11-27T20:08:36.362Z,98760.91
2022-11-27T20:13:38.768Z,98756.13
2022-11-27T20:18:41.270Z,98741.81
2022-11-27T20:23:44.364Z,98741.81
2022-11-27T20:28:46.364Z,98736.09
2022-11-27T20:33:48.683Z,98723.72
2022-11-27T20:38:52.232Z,98720.56
2022-11-27T20:43:56.639Z,98712.78
2022-11-27T20:48:59.562Z,98724.94
2022-11-27T20:54:03.890Z,98720.16
2022-11-27T20:59:07.995Z,98705.94
2022-11-27T21:04:26.337Z,98704.66
2022-11-27T21:09:29.421Z,98700.47
2022-11-27T21:14:31.424Z,98701.69
2022-11-27T21:19:33.348Z,98708.78
2022-11-27T21:24:35.257Z,98693.91
2022-11-27T21:29:37.661Z,98689.59
2022-11-27T21:34:40.736Z,98682.94
2022-11-27T21:39:44.712Z,98679.94
2022-11-27T21:44:49.882Z,98681.66
2022-11-27T21:49:52.028Z,98657.59
2022-11-27T21:54:53.954Z,98651.59
2022-11-27T21:59:55.831Z,98653.81
2022-11-27T22:04:57.626Z,98647.94
2022-11-27T22:09:59.451Z,98635.31
2022-11-27T22:15:01.278Z,98632.91
2022-11-27T22:20:03.351Z,98629.13
2022-11-27T22:25:06.266Z,98625.97
2022-11-27T22:30:08.835Z,98613.63
2022-11-27T22:35:10.791Z,98616.13
2022-11-27T22:40:13.363Z,98601.09
2022-11-27T22:45:15.367Z,98597.94
2022-11-27T22:50:17.343Z,98593.34
2022-11-27T22:55:19.146Z,98586.38
2022-11-27T23:00:21.689Z,98582.13
2022-11-27T23:05:23.490Z,98576.56
2022-11-27T23:10:25.852Z,98573.88
2022-11-27T23:15:27.698Z,98576.56
2022-11-27T23:20:29.494Z,98576.88
2022-11-27T23:25:31.311Z,98568.31
2022-11-27T23:30:35.229Z,98551.13
2022-11-27T23:35:37.042Z,98551.13
2022-11-27T23:40:39.518Z,98553.81
2022-11-27T23:45:41.405Z,98551.59
2022-11-27T23:50:43.302Z,98545.13
2022-11-27T23:55:45.127Z,98551.00
